createdAt,value
2023-02-19T00:00:04.791Z,76.36
2023-02-19T00:01:27.236Z,76.62
2023-02-19T00:02:30.147Z,76.48
2023-02-19T00:03:33.320Z,76.52
2023-02-19T00:04:36.286Z,76.42
2023-02-19T00:05:39.183Z,76.55
2023-02-19T00:06:43.049Z,76.56
2023-02-19T00:07:45.846Z,76.87
2023-02-19T00:08:49.302Z,76.84
2023-02-19T00:09:52.186Z,76.82
2023-02-19T00:10:59.788Z,76.57
2023-02-19T00:12:02.705Z,76.72
2023-02-19T00:13:05.659Z,76.82
2023-02-19T00:14:10.382Z,76.92
2023-02-19T00:15:13.373Z,76.88
2023-02-19T00:16:37.953Z,76.76
2023-02-19T00:17:40.914Z,76.90
2023-02-19T00:18:44.704Z,77.09
2023-02-19T00:19:47.768Z,77.20
2023-02-19T00:20:50.697Z,77.17
2023-02-19T00:21:53.966Z,77.42
2023-02-19T00:22:57.140Z,77.17
2023-02-19T00:24:02.913Z,77.45
2023-02-19T00:25:06.182Z,77.54
2023-02-19T00:26:18.615Z,77.36
2023-02-19T00:27:21.844Z,77.58
2023-02-19T00:28:24.761Z,77.11
2023-02-19T00:29:27.682Z,77.22
2023-02-19T00:30:30.805Z,77.44
2023-02-19T00:31:35.869Z,77.39
2023-02-19T00:32:38.916Z,77.21
2023-02-19T00:33:49.353Z,77.59
2023-02-19T00:34:52.288Z,77.45
2023-02-19T00:35:55.168Z,77.40
2023-02-19T00:36:58.047Z,77.54
2023-02-19T00:38:01.253Z,77.54
2023-02-19T00:39:06.238Z,77.58
2023-02-19T00:40:09.634Z,77.35
2023-02-19T00:41:20.626Z,77.70
2023-02-19T00:42:23.581Z,77.69
2023-02-19T00:43:26.580Z,77.93
2023-02-19T00:44:29.506Z,77.63
2023-02-19T00:45:34.577Z,77.47
2023-02-19T00:46:44.774Z,77.44
2023-02-19T00:47:47.848Z,77.29
2023-02-19T00:48:50.934Z,77.38
2023-02-19T00:49:53.910Z,78.13
2023-02-19T00:50:57.045Z,77.67
2023-02-19T00:52:00.024Z,77.68
2023-02-19T00:53:02.929Z,77.49
2023-02-19T00:54:06.558Z,77.69
2023-02-19T00:55:09.890Z,77.69
2023-02-19T00:56:13.593Z,78.01
2023-02-19T00:57:16.838Z,77.67
2023-02-19T00:58:19.730Z,77.51
2023-02-19T00:59:22.637Z,77.80
2023-02-19T01:00:25.598Z,77.89
2023-02-19T01:01:28.513Z,77.84
2023-02-19T01:02:31.595Z,77.89
2023-02-19T01:03:35.715Z,77.51
2023-02-19T01:04:38.990Z,78.05
2023-02-19T01:05:43.428Z,77.66
2023-02-19T01:06:46.334Z,77.89
2023-02-19T01:07:49.244Z,77.62
2023-02-19T01:08:52.242Z,77.75
2023-02-19T01:09:55.116Z,77.70
2023-02-19T01:10:59.335Z,77.71
2023-02-19T01:12:02.330Z,77.87
2023-02-19T01:13:05.619Z,77.70
2023-02-19T01:14:09.921Z,77.62
2023-02-19T01:17:13.974Z,77.59
2023-02-19T01:18:51.288Z,77.88
2023-02-19T01:19:54.495Z,77.68
2023-02-19T01:20:57.455Z,77.73
2023-02-19T01:22:00.564Z,77.55
2023-02-19T01:23:04.998Z,77.52
2023-02-19T01:24:08.237Z,77.50
2023-02-19T01:25:11.114Z,77.28
2023-02-19T01:26:21.129Z,77.49
2023-02-19T01:27:24.132Z,77.26
2023-02-19T01:28:27.242Z,77.36
2023-02-19T01:29:30.416Z,77.34
2023-02-19T01:30:37.763Z,77.62
2023-02-19T01:31:42.456Z,77.50
2023-02-19T01:32:45.776Z,77.33
2023-02-19T01:33:51.936Z,77.49
2023-02-19T01:34:54.812Z,77.38
2023-02-19T01:35:57.727Z,77.32
2023-02-19T01:37:00.871Z,77.36
2023-02-19T01:38:03.728Z,77.21
2023-02-19T01:39:06.890Z,77.08
2023-02-19T01:40:10.059Z,77.20
2023-02-19T01:41:21.363Z,77.31
2023-02-19T01:42:24.237Z,77.14
2023-02-19T01:43:27.558Z,77.17
2023-02-19T01:44:30.537Z,77.14
2023-02-19T01:45:44.109Z,76.77
2023-02-19T01:46:48.494Z,77.07
2023-02-19T01:48:01.676Z,76.98
2023-02-19T01:49:15.670Z,76.92
2023-02-19T01:50:18.909Z,76.77
2023-02-19T01:51:22.547Z,77.04
2023-02-19T01:52:32.696Z,76.93
2023-02-19T01:53:42.252Z,76.79
2023-02-19T01:54:46.374Z,76.49
2023-02-19T01:55:53.113Z,76.76
2023-02-19T01:56:57.658Z,76.89
2023-02-19T01:58:02.690Z,76.58
2023-02-19T01:59:07.450Z,76.36
2023-02-19T02:00:14.530Z,76.69
2023-02-19T02:01:17.559Z,76.52
2023-02-19T02:02:21.684Z,76.40
2023-02-19T02:03:26.173Z,76.58
2023-02-19T02:04:31.679Z,76.49
2023-02-19T02:05:37.721Z,76.49
2023-02-19T02:06:52.325Z,76.41
2023-02-19T02:08:14.374Z,76.74
2023-02-19T02:09:39.056Z,76.42
2023-02-19T02:10:43.209Z,76.32
2023-02-19T02:11:50.031Z,76.29
2023-02-19T02:12:58.995Z,76.34
2023-02-19T02:14:03.880Z,76.50
2023-02-19T02:15:07.741Z,76.27
2023-02-19T02:16:17.903Z,76.18
2023-02-19T02:17:26.964Z,76.18
2023-02-19T02:18:45.063Z,76.69
2023-02-19T02:20:07.022Z,76.45
2023-02-19T02:21:54.427Z,76.19
2023-02-19T02:23:15.039Z,76.26
2023-02-19T02:24:37.127Z,76.50
2023-02-19T02:26:17.279Z,76.32
2023-02-19T02:27:32.146Z,76.33
2023-02-19T02:29:13.482Z,76.33
2023-02-19T02:31:45.468Z,76.58
2023-02-19T02:33:09.035Z,76.69
2023-02-19T02:34:19.075Z,76.40
2023-02-19T02:35:26.766Z,76.41
2023-02-19T02:36:41.770Z,76.43
2023-02-19T02:37:47.034Z,76.72
2023-02-19T02:38:52.960Z,76.61
2023-02-19T02:39:58.339Z,76.67
2023-02-19T02:41:02.964Z,76.77
2023-02-19T02:42:24.982Z,76.44
2023-02-19T02:43:33.434Z,76.75
2023-02-19T02:44:37.491Z,76.96
2023-02-19T02:45:41.191Z,76.71
2023-02-19T02:46:47.991Z,76.77
2023-02-19T02:47:54.115Z,76.64
2023-02-19T02:49:03.564Z,76.75
2023-02-19T02:50:37.409Z,76.66
2023-02-19T02:51:50.774Z,76.85
2023-02-19T02:53:21.593Z,76.59
2023-02-19T02:54:48.056Z,77.07
2023-02-19T02:55:54.516Z,76.58
2023-02-19T02:56:59.228Z,76.81
2023-02-19T02:58:04.215Z,76.89
2023-02-19T02:59:09.982Z,76.99
2023-02-19T03:00:15.117Z,76.97
2023-02-19T03:01:47.449Z,76.92
2023-02-19T03:02:50.557Z,76.88
2023-02-19T03:04:02.940Z,77.18
2023-02-19T03:05:27.927Z,76.99
2023-02-19T03:06:34.607Z,77.06
2023-02-19T03:07:44.056Z,76.83
2023-02-19T03:08:52.847Z,77.15
2023-02-19T03:09:58.405Z,77.25
2023-02-19T03:11:24.184Z,77.23
2023-02-19T03:12:48.295Z,76.99
2023-02-19T03:14:16.067Z,77.12
2023-02-19T03:15:38.439Z,77.28
2023-02-19T03:17:04.812Z,77.26
2023-02-19T03:18:29.866Z,77.21
2023-02-19T03:19:37.944Z,77.01
2023-02-19T03:20:45.773Z,77.51
2023-02-19T03:22:10.249Z,77.48
2023-02-19T03:23:16.108Z,77.40
2023-02-19T03:24:42.550Z,77.32
2023-02-19T03:26:05.635Z,77.46
2023-02-19T03:27:18.697Z,77.46
2023-02-19T03:28:46.831Z,77.90
2023-02-19T03:29:52.762Z,77.86
2023-02-19T03:30:56.002Z,77.66
2023-02-19T03:32:04.432Z,77.73
2023-02-19T03:33:14.978Z,77.65
2023-02-19T03:34:26.263Z,77.61
2023-02-19T03:35:37.662Z,77.67
2023-02-19T03:36:45.855Z,77.93
2023-02-19T03:38:05.028Z,77.65
2023-02-19T03:39:10.715Z,77.65
2023-02-19T03:40:14.416Z,77.84
2023-02-19T03:41:27.427Z,78.02
2023-02-19T03:42:38.520Z,77.63
2023-02-19T03:43:52.622Z,77.80
2023-02-19T03:45:14.943Z,77.67
2023-02-19T03:46:36.507Z,77.91
2023-02-19T03:48:12.118Z,77.94
2023-02-19T03:49:42.119Z,77.88
2023-02-19T03:50:55.283Z,77.89
2023-02-19T03:52:11.286Z,78.01
2023-02-19T03:53:26.567Z,77.89
2023-02-19T03:54:36.363Z,77.97
2023-02-19T03:55:54.694Z,78.16
2023-02-19T03:57:32.428Z,78.19
2023-02-19T03:58:50.173Z,78.03
2023-02-19T04:00:02.063Z,78.15
2023-02-19T04:01:22.666Z,78.05
2023-02-19T04:02:39.644Z,78.00
2023-02-19T04:03:52.495Z,77.88
2023-02-19T04:05:05.994Z,78.28
2023-02-19T04:06:15.508Z,78.34
2023-02-19T04:07:18.765Z,78.19
2023-02-19T04:08:24.420Z,78.53
2023-02-19T04:09:41.584Z,78.54
2023-02-19T04:10:47.401Z,78.68
2023-02-19T04:11:52.405Z,78.78
2023-02-19T04:13:01.725Z,78.66
2023-02-19T04:14:13.174Z,78.41
2023-02-19T04:15:21.951Z,78.37
2023-02-19T04:16:28.864Z,78.63
2023-02-19T04:17:37.698Z,78.63
2023-02-19T04:18:45.204Z,78.68
2023-02-19T04:19:50.904Z,78.98
2023-02-19T04:20:53.719Z,78.60
2023-02-19T04:21:58.236Z,78.83
2023-02-19T04:23:01.220Z,78.85
2023-02-19T04:24:09.541Z,78.67
2023-02-19T04:25:12.448Z,78.85
2023-02-19T04:26:17.184Z,78.66
2023-02-19T04:27:20.232Z,78.80
2023-02-19T04:28:23.304Z,78.70
2023-02-19T04:29:26.124Z,78.63
2023-02-19T04:30:29.398Z,78.78
2023-02-19T04:31:35.508Z,78.88
2023-02-19T04:32:38.513Z,78.88
2023-02-19T04:33:41.329Z,78.89
2023-02-19T04:34:44.185Z,78.90
2023-02-19T04:35:47.229Z,78.87
2023-02-19T04:36:50.132Z,78.99
2023-02-19T04:37:52.976Z,78.96
2023-02-19T04:38:55.895Z,78.80
2023-02-19T04:39:58.732Z,78.85
2023-02-19T04:41:01.992Z,78.58
2023-02-19T04:42:05.211Z,78.96
2023-02-19T04:43:08.374Z,78.90
2023-02-19T04:44:11.279Z,78.96
2023-02-19T04:45:14.145Z,78.86
2023-02-19T04:46:17.275Z,78.98
2023-02-19T04:47:20.388Z,78.80
2023-02-19T04:48:23.581Z,78.87
2023-02-19T04:49:26.513Z,78.81
2023-02-19T04:50:29.473Z,78.53
2023-02-19T04:51:32.532Z,78.99
2023-02-19T04:52:35.675Z,78.87
2023-02-19T04:53:38.687Z,78.90
2023-02-19T04:54:41.607Z,78.92
2023-02-19T04:55:44.458Z,79.05
2023-02-19T04:56:47.396Z,78.96
2023-02-19T04:57:50.326Z,78.77
2023-02-19T04:58:53.318Z,79.04
2023-02-19T04:59:56.218Z,78.76
2023-02-19T05:00:59.028Z,78.85
2023-02-19T05:02:02.105Z,79.01
2023-02-19T05:03:05.444Z,78.80
2023-02-19T05:04:08.711Z,79.05
2023-02-19T05:05:11.570Z,79.07
2023-02-19T05:06:14.706Z,78.99
2023-02-19T05:07:17.743Z,79.05
2023-02-19T05:08:20.622Z,78.93
2023-02-19T05:09:23.649Z,78.91
2023-02-19T05:10:26.562Z,79.30
2023-02-19T05:11:29.357Z,78.76
2023-02-19T05:12:32.432Z,79.05
2023-02-19T05:13:35.421Z,79.25
2023-02-19T05:14:38.398Z,79.09
2023-02-19T05:15:41.313Z,79.10
2023-02-19T05:16:44.320Z,79.18
2023-02-19T05:17:47.404Z,79.21
2023-02-19T05:18:50.296Z,78.90
2023-02-19T05:19:53.357Z,79.31
2023-02-19T05:20:57.672Z,79.14
2023-02-19T05:22:00.646Z,79.17
2023-02-19T05:23:03.843Z,79.04
2023-02-19T05:24:07.182Z,79.29
2023-02-19T05:25:10.143Z,79.31
2023-02-19T05:26:18.866Z,79.09
2023-02-19T05:27:21.749Z,79.21
2023-02-19T05:28:29.161Z,79.19
2023-02-19T05:29:32.498Z,79.16
2023-02-19T05:30:35.709Z,79.54
2023-02-19T05:31:38.824Z,79.31
2023-02-19T05:32:41.716Z,79.52
2023-02-19T05:33:45.923Z,79.40
2023-02-19T05:34:48.852Z,79.65
2023-02-19T05:35:54.439Z,79.30
2023-02-19T05:36:57.333Z,79.48
2023-02-19T05:38:00.275Z,79.67
2023-02-19T05:39:03.810Z,79.64
2023-02-19T05:40:06.719Z,79.53
2023-02-19T05:41:20.859Z,79.71
2023-02-19T05:42:23.881Z,79.58
2023-02-19T05:43:26.907Z,79.84
2023-02-19T05:44:29.957Z,79.52
2023-02-19T05:45:33.846Z,79.75
2023-02-19T05:46:37.124Z,79.75
2023-02-19T05:47:40.239Z,79.99
2023-02-19T05:48:43.364Z,79.92
2023-02-19T05:49:46.332Z,79.79
2023-02-19T05:50:49.324Z,79.78
2023-02-19T05:51:52.331Z,79.92
2023-02-19T05:52:55.361Z,79.94
2023-02-19T05:53:58.513Z,79.64
2023-02-19T05:55:01.450Z,79.84
2023-02-19T05:56:05.229Z,79.70
2023-02-19T05:57:08.261Z,80.02
2023-02-19T05:58:11.219Z,79.82
2023-02-19T05:59:20.957Z,79.77
2023-02-19T06:00:27.077Z,79.77
2023-02-19T06:01:30.699Z,79.92
2023-02-19T06:02:33.654Z,79.93
2023-02-19T06:03:36.686Z,80.10
2023-02-19T06:04:39.549Z,79.95
2023-02-19T06:05:42.671Z,79.99
2023-02-19T06:06:46.881Z,79.94
2023-02-19T06:07:52.744Z,79.78
2023-02-19T06:08:55.598Z,79.94
2023-02-19T06:09:58.451Z,79.96
2023-02-19T06:11:01.461Z,80.08
2023-02-19T06:12:04.524Z,80.08
2023-02-19T06:13:09.179Z,80.11
2023-02-19T06:14:15.023Z,79.98
2023-02-19T06:15:17.930Z,79.83
2023-02-19T06:16:22.118Z,79.95
2023-02-19T06:17:25.117Z,80.00
2023-02-19T06:18:28.033Z,80.02
2023-02-19T06:19:30.914Z,80.39
2023-02-19T06:20:34.758Z,80.13
2023-02-19T06:21:37.741Z,80.07
2023-02-19T06:22:40.593Z,80.28
2023-02-19T06:23:44.308Z,80.09
2023-02-19T06:24:47.706Z,80.22
2023-02-19T06:25:50.513Z,80.11
2023-02-19T06:26:53.399Z,79.93
2023-02-19T06:27:56.273Z,80.11
2023-02-19T06:28:59.278Z,80.20
2023-02-19T06:30:02.277Z,80.27
2023-02-19T06:31:06.111Z,80.34
2023-02-19T06:32:09.066Z,80.38
2023-02-19T06:33:12.065Z,80.29
2023-02-19T06:34:15.051Z,80.67
2023-02-19T06:35:17.940Z,80.59
2023-02-19T06:36:22.072Z,80.55
2023-02-19T06:37:25.045Z,80.66
2023-02-19T06:38:28.612Z,80.34
2023-02-19T06:39:31.642Z,80.61
2023-02-19T06:40:34.838Z,80.71
2023-02-19T06:41:37.793Z,80.37
2023-02-19T06:42:40.669Z,80.16
2023-02-19T06:43:43.683Z,80.65
2023-02-19T06:44:46.496Z,80.49
2023-02-19T06:45:49.387Z,80.30
2023-02-19T06:46:55.500Z,80.26
2023-02-19T06:47:58.444Z,80.15
2023-02-19T06:49:03.542Z,80.09
2023-02-19T06:50:06.560Z,80.46
2023-02-19T06:51:13.264Z,80.20
2023-02-19T06:52:16.054Z,80.14
2023-02-19T06:53:18.950Z,80.34
2023-02-19T06:54:21.975Z,80.30
2023-02-19T06:55:24.892Z,80.01
2023-02-19T06:56:37.549Z,80.11
2023-02-19T06:57:40.395Z,79.78
2023-02-19T06:58:43.258Z,80.07
2023-02-19T06:59:46.762Z,80.10
2023-02-19T07:00:49.917Z,79.83
2023-02-19T07:01:52.847Z,79.78
2023-02-19T07:02:56.690Z,79.85
2023-02-19T07:04:00.091Z,79.84
2023-02-19T07:05:03.043Z,79.86
2023-02-19T07:06:06.253Z,79.76
2023-02-19T07:07:11.997Z,80.02
2023-02-19T07:08:17.204Z,79.81
2023-02-19T07:09:20.213Z,79.68
2023-02-19T07:10:23.092Z,79.71
2023-02-19T07:11:26.896Z,79.43
2023-02-19T07:12:30.004Z,79.56
2023-02-19T07:13:33.137Z,79.81
2023-02-19T07:14:36.010Z,79.71
2023-02-19T07:15:38.862Z,79.71
2023-02-19T07:16:42.341Z,79.45
2023-02-19T07:17:45.214Z,79.34
2023-02-19T07:18:48.121Z,79.33
2023-02-19T07:19:50.964Z,79.41
2023-02-19T07:20:53.882Z,79.16
2023-02-19T07:21:56.714Z,79.12
2023-02-19T07:22:59.589Z,78.98
2023-02-19T07:24:02.444Z,78.97
2023-02-19T07:25:05.531Z,79.03
2023-02-19T07:26:13.123Z,78.49
2023-02-19T07:27:15.862Z,78.47
2023-02-19T07:28:18.701Z,78.48
2023-02-19T07:29:21.544Z,78.70
2023-02-19T07:30:24.472Z,78.25
2023-02-19T07:31:28.525Z,78.48
2023-02-19T07:32:31.577Z,78.52
2023-02-19T07:33:34.574Z,78.46
2023-02-19T07:34:37.439Z,78.46
2023-02-19T07:35:46.815Z,78.55
2023-02-19T07:36:49.647Z,78.44
2023-02-19T07:37:52.504Z,78.61
2023-02-19T07:38:56.816Z,78.44
2023-02-19T07:40:03.225Z,78.30
2023-02-19T07:41:07.116Z,78.51
2023-02-19T07:42:10.016Z,78.69
2023-02-19T07:43:13.957Z,78.35
2023-02-19T07:44:17.234Z,78.34
2023-02-19T07:45:20.797Z,78.15
2023-02-19T07:46:24.156Z,78.35
2023-02-19T07:47:27.054Z,78.04
2023-02-19T07:48:30.062Z,78.26
2023-02-19T07:49:33.267Z,77.95
2023-02-19T07:50:36.142Z,77.89
2023-02-19T07:51:40.027Z,77.98
2023-02-19T07:52:43.063Z,77.77
2023-02-19T07:53:47.233Z,77.93
2023-02-19T07:54:50.277Z,77.65
2023-02-19T07:56:00.808Z,77.58
2023-02-19T07:57:03.797Z,77.30
2023-02-19T07:58:06.844Z,77.62
2023-02-19T07:59:10.713Z,77.50
2023-02-19T08:00:14.040Z,77.47
2023-02-19T08:01:19.487Z,77.54
2023-02-19T08:02:47.556Z,77.32
2023-02-19T08:03:53.718Z,77.07
2023-02-19T08:04:56.670Z,77.06
2023-02-19T08:05:59.582Z,76.74
2023-02-19T08:07:02.558Z,76.84
2023-02-19T08:08:07.318Z,77.15
2023-02-19T08:09:10.632Z,76.91
2023-02-19T08:10:32.212Z,76.48
2023-02-19T08:11:53.644Z,76.76
2023-02-19T08:13:16.979Z,76.67
2023-02-19T08:14:20.259Z,76.38
2023-02-19T08:15:23.172Z,76.36
2023-02-19T08:16:42.007Z,76.09
2023-02-19T08:17:45.923Z,76.06
2023-02-19T08:18:49.254Z,75.67
2023-02-19T08:19:52.104Z,76.02
2023-02-19T08:20:56.462Z,75.51
2023-02-19T08:21:59.472Z,75.38
2023-02-19T08:23:02.625Z,75.18
2023-02-19T08:24:05.862Z,75.43
2023-02-19T08:25:08.935Z,75.35
2023-02-19T08:26:12.074Z,75.15
2023-02-19T08:27:14.929Z,75.10
2023-02-19T08:28:18.686Z,74.96
2023-02-19T08:29:21.631Z,75.21
2023-02-19T08:30:24.700Z,74.95
2023-02-19T08:31:28.177Z,75.23
2023-02-19T08:32:31.982Z,75.36
2023-02-19T08:33:41.191Z,74.68
2023-02-19T08:34:50.352Z,74.83
2023-02-19T08:35:53.312Z,75.06
2023-02-19T08:36:58.970Z,74.51
2023-02-19T08:38:02.141Z,74.63
2023-02-19T08:39:04.948Z,74.56
2023-02-19T08:40:08.260Z,74.18
2023-02-19T08:41:13.811Z,73.97
2023-02-19T08:42:16.902Z,74.27
2023-02-19T08:43:19.684Z,74.32
2023-02-19T08:44:22.545Z,74.36
2023-02-19T08:45:25.385Z,73.96
2023-02-19T08:46:28.312Z,73.11
2023-02-19T08:47:31.710Z,73.41
2023-02-19T08:48:34.527Z,72.19
2023-02-19T08:49:37.522Z,72.58
2023-02-19T08:50:40.411Z,71.34
2023-02-19T08:51:43.287Z,71.71
2023-02-19T08:52:46.367Z,71.99
2023-02-19T08:53:49.245Z,72.58
2023-02-19T08:54:52.072Z,72.93
2023-02-19T08:55:55.239Z,72.18
2023-02-19T08:56:58.631Z,72.12
2023-02-19T08:58:01.460Z,72.09
2023-02-19T08:59:04.278Z,71.86
2023-02-19T09:00:08.994Z,72.06
2023-02-19T09:01:18.390Z,71.61
2023-02-19T09:02:21.809Z,71.86
2023-02-19T09:03:24.890Z,72.02
2023-02-19T09:04:28.184Z,71.11
2023-02-19T09:05:31.350Z,71.07
2023-02-19T09:06:34.373Z,71.03
2023-02-19T09:07:37.318Z,71.45
2023-02-19T09:08:40.484Z,71.32
2023-02-19T09:09:43.865Z,71.49
2023-02-19T09:10:57.558Z,71.14
2023-02-19T09:12:00.561Z,70.20
2023-02-19T09:13:03.577Z,70.58
2023-02-19T09:14:07.806Z,70.41
2023-02-19T09:15:12.411Z,69.96
2023-02-19T09:16:15.434Z,68.01
2023-02-19T09:17:18.778Z,69.24
2023-02-19T09:18:21.692Z,69.54
2023-02-19T09:19:25.047Z,69.25
2023-02-19T09:20:28.321Z,69.62
2023-02-19T09:21:31.315Z,69.65
2023-02-19T09:22:35.374Z,69.60
2023-02-19T09:23:38.523Z,69.83
2023-02-19T09:24:43.375Z,69.50
2023-02-19T09:25:46.412Z,69.50
2023-02-19T09:26:50.912Z,68.81
2023-02-19T09:27:57.398Z,67.66
2023-02-19T09:29:00.338Z,67.59
2023-02-19T09:30:04.125Z,67.94
2023-02-19T09:31:11.483Z,67.51
2023-02-19T09:32:14.628Z,66.55
2023-02-19T09:33:17.499Z,66.12
2023-02-19T09:34:20.479Z,66.02
2023-02-19T09:35:23.429Z,64.30
2023-02-19T09:36:26.504Z,64.25
2023-02-19T09:37:29.699Z,64.81
2023-02-19T09:38:32.990Z,65.06
2023-02-19T09:39:36.134Z,64.22
2023-02-19T09:40:39.614Z,64.55
2023-02-19T09:41:53.593Z,64.06
2023-02-19T09:42:56.865Z,64.32
2023-02-19T09:44:03.360Z,64.69
2023-02-19T09:45:06.644Z,64.88
2023-02-19T09:46:24.174Z,64.87
2023-02-19T09:47:30.395Z,64.93
2023-02-19T09:48:33.273Z,64.91
2023-02-19T09:49:39.657Z,64.20
2023-02-19T09:50:47.296Z,64.40
2023-02-19T09:52:18.465Z,64.07
2023-02-19T09:53:27.290Z,63.61
2023-02-19T09:54:32.032Z,64.01
2023-02-19T09:55:39.100Z,64.31
2023-02-19T09:56:41.929Z,63.68
2023-02-19T09:57:46.517Z,63.76
2023-02-19T09:58:53.044Z,63.96
2023-02-19T10:00:13.687Z,63.44
2023-02-19T10:01:16.970Z,62.86
2023-02-19T10:02:23.117Z,62.58
2023-02-19T10:03:41.429Z,62.02
2023-02-19T10:04:46.186Z,60.72
2023-02-19T10:05:49.462Z,59.86
2023-02-19T10:06:52.827Z,57.67
2023-02-19T10:07:56.629Z,58.45
2023-02-19T10:09:13.734Z,58.57
2023-02-19T10:10:16.528Z,58.92
2023-02-19T10:11:19.857Z,59.01
2023-02-19T10:12:31.792Z,58.80
2023-02-19T10:13:37.512Z,57.68
2023-02-19T10:14:45.258Z,58.31
2023-02-19T10:15:51.773Z,57.80
2023-02-19T10:17:05.047Z,57.25
2023-02-19T10:18:11.022Z,55.41
2023-02-19T10:19:15.584Z,57.42
2023-02-19T10:20:24.539Z,56.43
2023-02-19T10:21:28.151Z,55.45
2023-02-19T10:22:34.828Z,55.89
2023-02-19T10:23:40.973Z,55.72
2023-02-19T10:24:45.898Z,56.21
2023-02-19T10:25:57.196Z,55.03
2023-02-19T10:27:00.839Z,54.93
2023-02-19T10:28:04.783Z,54.56
2023-02-19T10:29:09.650Z,53.90
2023-02-19T10:30:21.230Z,55.31
2023-02-19T10:31:26.152Z,55.98
2023-02-19T10:32:29.833Z,56.06
2023-02-19T10:33:32.838Z,56.04
2023-02-19T10:34:35.818Z,56.48
2023-02-19T10:36:00.325Z,55.97
2023-02-19T10:37:03.464Z,56.30
2023-02-19T10:38:09.866Z,55.28
2023-02-19T10:39:21.623Z,55.53
2023-02-19T10:40:28.681Z,53.82
2023-02-19T10:41:31.831Z,54.84
2023-02-19T10:42:34.627Z,54.74
2023-02-19T10:43:42.133Z,52.17
2023-02-19T10:44:49.265Z,52.60
2023-02-19T10:45:53.007Z,53.06
2023-02-19T10:46:59.533Z,51.90
2023-02-19T10:48:03.338Z,51.84
2023-02-19T10:49:17.742Z,52.67
2023-02-19T10:50:32.037Z,51.53
2023-02-19T10:51:38.293Z,52.88
2023-02-19T10:52:42.392Z,52.13
2023-02-19T10:53:48.689Z,53.56
2023-02-19T10:55:14.169Z,52.48
2023-02-19T10:56:30.044Z,52.95
2023-02-19T10:57:34.542Z,52.95
2023-02-19T10:58:40.153Z,52.86
2023-02-19T10:59:57.670Z,53.23
2023-02-19T11:01:14.308Z,51.71
2023-02-19T11:02:19.149Z,52.42
2023-02-19T11:03:24.098Z,50.08
2023-02-19T11:04:38.001Z,50.59
2023-02-19T11:05:51.865Z,50.94
2023-02-19T11:06:54.969Z,51.54
2023-02-19T11:07:58.340Z,51.79
2023-02-19T11:09:01.394Z,51.23
2023-02-19T11:10:07.071Z,51.00
2023-02-19T11:11:30.350Z,51.01
2023-02-19T11:12:34.796Z,50.71
2023-02-19T11:13:39.783Z,51.04
2023-02-19T11:14:44.755Z,51.75
2023-02-19T11:15:53.128Z,51.17
2023-02-19T11:16:58.471Z,50.73
2023-02-19T11:18:13.495Z,49.68
2023-02-19T11:19:41.735Z,49.35
2023-02-19T11:21:00.986Z,49.54
2023-02-19T11:22:34.324Z,47.48
2023-02-19T11:23:47.140Z,48.80
2023-02-19T11:24:54.534Z,47.49
2023-02-19T11:26:06.531Z,48.23
2023-02-19T11:27:18.836Z,47.05
2023-02-19T11:28:34.975Z,47.01
2023-02-19T11:29:38.280Z,46.15
2023-02-19T11:30:43.136Z,46.19
2023-02-19T11:31:46.507Z,46.76
2023-02-19T11:32:49.484Z,46.14
2023-02-19T11:33:57.081Z,45.37
2023-02-19T11:35:19.008Z,46.32
2023-02-19T11:36:30.445Z,45.73
2023-02-19T11:37:33.708Z,46.61
2023-02-19T11:38:36.655Z,47.26
2023-02-19T11:39:44.994Z,46.98
2023-02-19T11:41:00.494Z,47.54
2023-02-19T11:42:29.528Z,47.99
2023-02-19T11:44:20.585Z,47.80
2023-02-19T11:45:42.597Z,48.33
2023-02-19T11:46:54.329Z,47.51
2023-02-19T11:48:31.968Z,46.64
2023-02-19T11:49:46.935Z,47.05
2023-02-19T11:51:05.086Z,47.50
2023-02-19T11:52:22.081Z,46.88
2023-02-19T11:53:32.111Z,47.40
2023-02-19T11:54:49.293Z,47.38
2023-02-19T11:56:07.557Z,47.07
2023-02-19T11:57:35.695Z,46.43
2023-02-19T11:59:01.623Z,45.58
2023-02-19T12:00:33.493Z,45.30
2023-02-19T12:01:57.159Z,46.11
2023-02-19T12:03:06.652Z,46.47
2023-02-19T12:04:30.726Z,46.52
2023-02-19T12:05:56.057Z,45.89
2023-02-19T12:07:22.198Z,46.09
2023-02-19T12:08:50.160Z,45.30
2023-02-19T12:10:11.699Z,45.87
2023-02-19T12:12:04.346Z,45.64
2023-02-19T12:13:19.621Z,45.68
2023-02-19T12:14:48.713Z,45.86
2023-02-19T12:15:51.675Z,46.47
2023-02-19T12:17:06.336Z,45.91
2023-02-19T12:18:27.569Z,46.09
2023-02-19T12:19:36.050Z,46.22
2023-02-19T12:21:01.245Z,46.29
2023-02-19T12:22:46.322Z,46.44
2023-02-19T12:24:16.617Z,46.95
2023-02-19T12:25:46.470Z,47.56
2023-02-19T12:27:09.674Z,47.69
2023-02-19T12:28:54.870Z,48.02
2023-02-19T12:30:17.363Z,47.21
2023-02-19T12:31:33.064Z,47.42
2023-02-19T12:33:09.415Z,46.82
2023-02-19T12:34:15.720Z,46.19
2023-02-19T12:35:18.605Z,45.93
2023-02-19T12:36:30.336Z,45.35
2023-02-19T12:38:04.936Z,45.22
2023-02-19T12:39:18.897Z,45.27
2023-02-19T12:40:27.835Z,44.39
2023-02-19T12:41:47.553Z,43.98
2023-02-19T12:43:16.031Z,43.94
2023-02-19T12:44:34.833Z,44.60
2023-02-19T12:45:40.432Z,44.69
2023-02-19T12:46:49.740Z,44.34
2023-02-19T12:48:08.189Z,44.96
2023-02-19T12:49:13.639Z,44.05
2023-02-19T12:50:21.894Z,44.99
2023-02-19T12:51:39.293Z,43.58
2023-02-19T12:52:48.330Z,43.94
2023-02-19T12:53:57.259Z,43.67
2023-02-19T12:55:12.859Z,44.92
2023-02-19T12:56:41.631Z,44.67
2023-02-19T12:57:45.187Z,42.70
2023-02-19T12:58:56.734Z,42.59
2023-02-19T13:00:22.226Z,43.11
2023-02-19T13:01:36.076Z,38.52
2023-02-19T13:02:42.072Z,39.63
2023-02-19T13:04:00.582Z,41.09
2023-02-19T13:05:22.940Z,39.99
2023-02-19T13:06:35.045Z,36.79
2023-02-19T13:07:57.712Z,38.88
2023-02-19T13:09:07.562Z,38.29
2023-02-19T13:10:27.355Z,36.40
2023-02-19T13:11:40.218Z,37.59
2023-02-19T13:12:45.224Z,37.77
2023-02-19T13:13:55.743Z,38.26
2023-02-19T13:15:03.970Z,35.67
2023-02-19T13:16:13.435Z,35.29
2023-02-19T13:17:17.092Z,36.61
2023-02-19T13:18:24.649Z,36.68
2023-02-19T13:19:28.300Z,36.67
2023-02-19T13:20:34.905Z,35.78
2023-02-19T13:21:57.065Z,37.22
2023-02-19T13:23:35.143Z,35.67
2023-02-19T13:24:42.262Z,35.28
2023-02-19T13:26:04.530Z,35.53
2023-02-19T13:27:23.027Z,35.51
2023-02-19T13:28:50.577Z,33.69
2023-02-19T13:30:05.031Z,33.93
2023-02-19T13:31:20.011Z,33.52
2023-02-19T13:33:11.068Z,33.07
2023-02-19T13:34:42.763Z,34.70
2023-02-19T13:35:54.118Z,33.60
2023-02-19T13:36:58.760Z,33.31
2023-02-19T13:39:16.975Z,34.42
2023-02-19T13:40:22.847Z,33.47
2023-02-19T13:41:31.809Z,33.90
2023-02-19T13:42:36.516Z,32.85
2023-02-19T13:43:42.518Z,32.48
2023-02-19T13:44:48.543Z,30.66
2023-02-19T13:46:00.316Z,32.48
2023-02-19T13:47:06.208Z,31.42
2023-02-19T13:48:23.929Z,31.35
2023-02-19T13:49:34.033Z,31.45
2023-02-19T13:50:37.137Z,31.75
2023-02-19T13:51:52.999Z,31.80
2023-02-19T13:53:01.241Z,31.76
2023-02-19T13:54:19.851Z,32.48
2023-02-19T14:24:01.789Z,30.48
2023-02-19T14:25:21.016Z,31.10
2023-02-19T14:26:26.522Z,31.13
2023-02-19T14:27:29.469Z,30.82
2023-02-19T14:28:36.514Z,30.70
2023-02-19T14:29:40.731Z,31.39
2023-02-19T14:30:55.214Z,30.89
2023-02-19T14:31:58.394Z,29.97
2023-02-19T14:33:10.601Z,30.11
2023-02-19T14:34:26.900Z,31.00
2023-02-19T14:35:53.914Z,31.38
2023-02-19T14:37:01.292Z,31.82
2023-02-19T14:38:06.528Z,31.20
2023-02-19T14:39:26.178Z,31.21
2023-02-19T14:40:38.358Z,31.68
2023-02-19T14:41:45.640Z,32.04
2023-02-19T14:42:51.424Z,31.98
2023-02-19T14:43:59.400Z,32.45
2023-02-19T14:45:07.110Z,32.45
2023-02-19T14:46:22.708Z,32.97
2023-02-19T14:47:28.642Z,33.30
2023-02-19T14:48:39.780Z,33.02
2023-02-19T14:49:53.191Z,33.38
2023-02-19T14:51:03.121Z,33.68
2023-02-19T14:52:14.266Z,33.19
2023-02-19T14:53:19.214Z,33.37
2023-02-19T14:54:32.226Z,33.67
2023-02-19T14:55:40.016Z,33.93
2023-02-19T14:56:47.306Z,34.13
2023-02-19T14:57:53.228Z,34.46
2023-02-19T14:59:25.168Z,34.72
2023-02-19T15:00:33.723Z,35.24
2023-02-19T15:01:36.953Z,35.25
2023-02-19T15:02:43.209Z,35.40
2023-02-19T15:03:49.296Z,35.65
2023-02-19T15:04:53.159Z,35.91
2023-02-19T15:06:00.956Z,36.35
2023-02-19T15:07:09.946Z,36.61
2023-02-19T15:08:18.653Z,36.85
2023-02-19T15:09:21.977Z,36.85
2023-02-19T15:10:28.422Z,37.08
2023-02-19T15:11:32.877Z,37.39
2023-02-19T15:12:40.934Z,37.79